sensor_id;sensor_type;location;lat;lon;timestamp;pressure;altitude;pressure_sealevel;temperature;humidity
66486;BME280;53303;47.476;8.084;2023-03-03T00:02:17;95334.22;;;18.95;32.51
66486;BME280;53303;47.476;8.084;2023-03-03T00:04:44;95329.44;;;18.95;32.02
66486;BME280;53303;47.476;8.084;2023-03-03T00:07:10;95325.13;;;19.00;32.27
66486;BME280;53303;47.476;8.084;2023-03-03T00:09:36;95324.38;;;18.99;32.28
66486;BME280;53303;47.476;8.084;2023-03-03T00:12:29;95320.13;;;18.98;32.06
66486;BME280;53303;47.476;8.084;2023-03-03T00:14:58;95318.13;;;18.99;32.16
66486;BME280;53303;47.476;8.084;2023-03-03T00:17:26;95329.91;;;18.99;32.22
66486;BME280;53303;47.476;8.084;2023-03-03T00:19:52;95322.63;;;18.96;32.12
66486;BME280;53303;47.476;8.084;2023-03-03T00:22:35;95324.91;;;18.92;32.01
66486;BME280;53303;47.476;8.084;2023-03-03T00:27:49;95323.41;;;18.97;32.23
66486;BME280;53303;47.476;8.084;2023-03-03T00:30:27;95323.91;;;18.95;32.06
66486;BME280;53303;47.476;8.084;2023-03-03T00:32:53;95308.81;;;18.85;32.26
66486;BME280;53303;47.476;8.084;2023-03-03T00:37:53;95319.13;;;18.96;32.07
66486;BME280;53303;47.476;8.084;2023-03-03T00:40:25;95331.94;;;18.99;32.18
66486;BME280;53303;47.476;8.084;2023-03-03T00:42:55;95330.44;;;18.87;32.26
66486;BME280;53303;47.476;8.084;2023-03-03T00:45:33;95327.66;;;18.92;32.24
66486;BME280;53303;47.476;8.084;2023-03-03T00:50:45;95333.69;;;18.96;32.12
66486;BME280;53303;47.476;8.084;2023-03-03T00:53:13;95335.69;;;18.96;32.16
66486;BME280;53303;47.476;8.084;2023-03-03T00:55:41;95339.22;;;18.96;31.79
66486;BME280;53303;47.476;8.084;2023-03-03T00:58:07;95328.69;;;18.95;32.11
66486;BME280;53303;47.476;8.084;2023-03-03T01:00:33;95333.69;;;18.96;32.00
66486;BME280;53303;47.476;8.084;2023-03-03T01:03:02;95332.19;;;18.95;31.98
66486;BME280;53303;47.476;8.084;2023-03-03T01:05:28;95321.88;;;18.90;32.15
66486;BME280;53303;47.476;8.084;2023-03-03T01:07:54;95328.94;;;18.97;32.08
66486;BME280;53303;47.476;8.084;2023-03-03T01:10:19;95285.16;;;18.73;32.12
66486;BME280;53303;47.476;8.084;2023-03-03T01:12:48;95322.38;;;18.94;32.03
66486;BME280;53303;47.476;8.084;2023-03-03T01:15:14;95326.91;;;18.97;32.09
66486;BME280;53303;47.476;8.084;2023-03-03T01:17:40;95327.16;;;18.99;32.21
66486;BME280;53303;47.476;8.084;2023-03-03T01:20:08;95325.66;;;18.98;32.04
66486;BME280;53303;47.476;8.084;2023-03-03T01:22:34;95320.13;;;18.98;32.05
66486;BME280;53303;47.476;8.084;2023-03-03T01:24:59;95319.34;;;18.98;32.11
66486;BME280;53303;47.476;8.084;2023-03-03T01:27:29;95323.66;;;18.99;31.95
66486;BME280;53303;47.476;8.084;2023-03-03T01:29:57;95326.41;;;18.99;32.14
66486;BME280;53303;47.476;8.084;2023-03-03T01:32:24;95322.91;;;18.98;31.99
66486;BME280;53303;47.476;8.084;2023-03-03T01:34:50;95319.63;;;18.94;32.06
66486;BME280;53303;47.476;8.084;2023-03-03T01:37:15;95323.41;;;18.97;31.93
66486;BME280;53303;47.476;8.084;2023-03-03T01:39:40;95324.16;;;18.97;31.98
66486;BME280;53303;47.476;8.084;2023-03-03T01:42:06;95321.38;;;18.97;32.16
66486;BME280;53303;47.476;8.084;2023-03-03T01:44:32;95317.09;;;18.96;32.04
66486;BME280;53303;47.476;8.084;2023-03-03T01:47:08;95311.06;;;18.92;31.92
66486;BME280;53303;47.476;8.084;2023-03-03T01:55:01;95325.38;;;18.96;32.05
66486;BME280;53303;47.476;8.084;2023-03-03T01:57:31;95317.34;;;18.93;32.08
66486;BME280;53303;47.476;8.084;2023-03-03T01:59:59;95300.00;;;18.87;32.06
66486;BME280;53303;47.476;8.084;2023-03-03T02:02:27;95321.38;;;18.97;32.00
66486;BME280;53303;47.476;8.084;2023-03-03T02:04:53;95310.31;;;18.97;32.05
66486;BME280;53303;47.476;8.084;2023-03-03T02:07:19;95314.59;;;18.98;32.12
66486;BME280;53303;47.476;8.084;2023-03-03T02:09:48;95313.09;;;18.97;32.11
66486;BME280;53303;47.476;8.084;2023-03-03T02:12:18;95317.09;;;18.91;31.99
66486;BME280;53303;47.476;8.084;2023-03-03T02:14:44;95319.34;;;18.98;31.95
66486;BME280;53303;47.476;8.084;2023-03-03T02:17:10;95302.53;;;18.90;32.18
66486;BME280;53303;47.476;8.084;2023-03-03T02:20:02;95320.09;;;18.93;32.04
66486;BME280;53303;47.476;8.084;2023-03-03T02:23:07;95319.38;;;18.92;32.11
66486;BME280;53303;47.476;8.084;2023-03-03T02:28:06;95316.84;;;18.94;32.10
66486;BME280;53303;47.476;8.084;2023-03-03T02:30:36;95313.09;;;18.92;31.97
66486;BME280;53303;47.476;8.084;2023-03-03T02:33:02;95312.84;;;18.95;32.00
66486;BME280;53303;47.476;8.084;2023-03-03T02:35:33;95319.13;;;18.96;32.06
66486;BME280;53303;47.476;8.084;2023-03-03T02:40:38;95321.63;;;18.94;32.01
66486;BME280;53303;47.476;8.084;2023-03-03T02:43:10;95317.88;;;18.97;31.99
66486;BME280;53303;47.476;8.084;2023-03-03T02:45:43;95320.63;;;18.97;32.06
66486;BME280;53303;47.476;8.084;2023-03-03T02:48:10;95324.16;;;18.97;32.06
66486;BME280;53303;47.476;8.084;2023-03-03T02:50:36;95313.09;;;18.92;31.93
66486;BME280;53303;47.476;8.084;2023-03-03T02:53:02;95314.09;;;18.94;31.96
66486;BME280;53303;47.476;8.084;2023-03-03T02:55:27;95291.44;;;18.79;32.15
66486;BME280;53303;47.476;8.084;2023-03-03T02:57:53;95314.84;;;18.95;32.06
66486;BME280;53303;47.476;8.084;2023-03-03T03:00:18;95321.13;;;18.95;31.99
66486;BME280;53303;47.476;8.084;2023-03-03T03:02:45;95322.13;;;18.92;32.43
66486;BME280;53303;47.476;8.084;2023-03-03T03:05:13;95322.63;;;18.96;32.04
66486;BME280;53303;47.476;8.084;2023-03-03T03:07:38;95319.13;;;18.90;32.14
66486;BME280;53303;47.476;8.084;2023-03-03T03:10:04;95325.13;;;18.94;32.00
66486;BME280;53303;47.476;8.084;2023-03-03T03:12:30;95320.63;;;18.97;31.98
66486;BME280;53303;47.476;8.084;2023-03-03T03:14:55;95319.63;;;18.94;32.13
66486;BME280;53303;47.476;8.084;2023-03-03T03:17:21;95315.59;;;18.95;32.09
66486;BME280;53303;47.476;8.084;2023-03-03T03:19:50;95306.56;;;18.95;32.04
66486;BME280;53303;47.476;8.084;2023-03-03T03:22:16;95308.81;;;18.96;32.08
66486;BME280;53303;47.476;8.084;2023-03-03T03:24:41;95305.28;;;18.96;32.00
66486;BME280;53303;47.476;8.084;2023-03-03T03:27:07;95308.81;;;18.96;32.18
66486;BME280;53303;47.476;8.084;2023-03-03T03:29:33;95298.00;;;18.93;32.16
66486;BME280;53303;47.476;8.084;2023-03-03T03:32:03;95294.47;;;18.92;32.06
66486;BME280;53303;47.476;8.084;2023-03-03T03:34:29;95300.50;;;18.96;32.13
66486;BME280;53303;47.476;8.084;2023-03-03T03:36:55;95301.78;;;18.95;31.94
66486;BME280;53303;47.476;8.084;2023-03-03T03:39:20;95307.31;;;18.95;32.15
66486;BME280;53303;47.476;8.084;2023-03-03T03:41:48;95300.50;;;18.96;32.11
66486;BME280;53303;47.476;8.084;2023-03-03T03:44:13;95299.25;;;18.92;31.97
66486;BME280;53303;47.476;8.084;2023-03-03T03:46:39;95304.53;;;18.95;31.86
66486;BME280;53303;47.476;8.084;2023-03-03T03:49:04;95300.50;;;18.96;31.97
66486;BME280;53303;47.476;8.084;2023-03-03T03:51:30;95309.31;;;18.95;31.85
66486;BME280;53303;47.476;8.084;2023-03-03T03:53:58;95301.28;;;18.97;31.98
66486;BME280;53303;47.476;8.084;2023-03-03T03:56:23;95290.22;;;18.91;31.89
66486;BME280;53303;47.476;8.084;2023-03-03T03:58:48;95286.19;;;18.87;32.02
66486;BME280;53303;47.476;8.084;2023-03-03T04:01:14;95284.16;;;18.93;32.07
66486;BME280;53303;47.476;8.084;2023-03-03T04:03:42;95297.75;;;18.96;31.92
66486;BME280;53303;47.476;8.084;2023-03-03T04:06:08;95300.50;;;18.96;32.16
66486;BME280;53303;47.476;8.084;2023-03-03T04:08:33;95292.97;;;18.97;32.15
66486;BME280;53303;47.476;8.084;2023-03-03T04:10:58;95300.50;;;18.96;31.91
66486;BME280;53303;47.476;8.084;2023-03-03T04:13:24;95304.03;;;18.97;31.98
66486;BME280;53303;47.476;8.084;2023-03-03T04:15:55;95299.00;;;18.95;31.88
66486;BME280;53303;47.476;8.084;2023-03-03T04:18:20;95294.97;;;18.91;32.15
66486;BME280;53303;47.476;8.084;2023-03-03T04:20:48;95306.81;;;18.91;31.93
66486;BME280;53303;47.476;8.084;2023-03-03T04:23:14;95302.28;;;18.94;31.93
66486;BME280;53303;47.476;8.084;2023-03-03T04:25:41;95309.06;;;18.98;31.92
66486;BME280;53303;47.476;8.084;2023-03-03T04:28:07;95306.28;;;18.93;32.13
66486;BME280;53303;47.476;8.084;2023-03-03T04:30:32;95313.09;;;18.97;32.06
66486;BME280;53303;47.476;8.084;2023-03-03T04:32:58;95309.56;;;18.97;31.98
66486;BME280;53303;47.476;8.084;2023-03-03T04:35:23;95315.59;;;18.95;31.93
66486;BME280;53303;47.476;8.084;2023-03-03T04:37:48;95307.81;;;18.94;32.10
66486;BME280;53303;47.476;8.084;2023-03-03T04:40:14;95315.09;;;18.97;31.96
66486;BME280;53303;47.476;8.084;2023-03-03T04:42:40;95315.09;;;18.97;32.06
66486;BME280;53303;47.476;8.084;2023-03-03T04:45:06;95311.56;;;18.91;32.12
66486;BME280;53303;47.476;8.084;2023-03-03T04:47:32;95310.06;;;18.95;31.93
66486;BME280;53303;47.476;8.084;2023-03-03T04:49:57;95310.06;;;18.95;32.07
66486;BME280;53303;47.476;8.084;2023-03-03T04:52:26;95310.81;;;18.96;32.16
66486;BME280;53303;47.476;8.084;2023-03-03T04:54:51;95310.06;;;18.95;32.18
66486;BME280;53303;47.476;8.084;2023-03-03T04:57:17;95314.09;;;18.94;31.98
66486;BME280;53303;47.476;8.084;2023-03-03T04:59:44;95313.59;;;18.96;31.90
66486;BME280;53303;47.476;8.084;2023-03-03T05:02:13;95309.06;;;18.93;32.00
66486;BME280;53303;47.476;8.084;2023-03-03T05:04:39;95316.84;;;18.94;32.06
66486;BME280;53303;47.476;8.084;2023-03-03T05:07:07;95315.84;;;18.92;32.46
66486;BME280;53303;47.476;8.084;2023-03-03T05:09:33;95315.09;;;18.91;32.36
66486;BME280;53303;47.476;8.084;2023-03-03T05:11:58;95308.06;;;18.85;32.53
66486;BME280;53303;47.476;8.084;2023-03-03T05:14:25;95306.28;;;18.81;32.70
66486;BME280;53303;47.476;8.084;2023-03-03T05:16:51;95312.56;;;18.82;32.66
66486;BME280;53303;47.476;8.084;2023-03-03T05:19:16;95314.09;;;18.83;32.55
66486;BME280;53303;47.476;8.084;2023-03-03T05:21:42;95327.41;;;18.85;32.56
66486;BME280;53303;47.476;8.084;2023-03-03T05:24:08;95319.63;;;18.83;32.81
66486;BME280;53303;47.476;8.084;2023-03-03T05:26:34;95327.16;;;18.82;32.88
66486;BME280;53303;47.476;8.084;2023-03-03T05:28:59;95318.81;;;18.77;32.97
66486;BME280;53303;47.476;8.084;2023-03-03T05:31:25;95326.09;;;18.80;33.08
66486;BME280;53303;47.476;8.084;2023-03-03T05:33:52;95328.41;;;18.81;33.03
66486;BME280;53303;47.476;8.084;2023-03-03T05:36:20;95335.16;;;18.80;33.00
66486;BME280;53303;47.476;8.084;2023-03-03T05:38:48;95326.34;;;18.71;33.17
66486;BME280;53303;47.476;8.084;2023-03-03T05:41:14;95341.19;;;18.79;33.12
66486;BME280;53303;47.476;8.084;2023-03-03T05:43:42;95333.41;;;18.77;33.18
66486;BME280;53303;47.476;8.084;2023-03-03T05:46:07;95328.63;;;18.78;33.02
66486;BME280;53303;47.476;8.084;2023-03-03T05:48:33;95333.91;;;18.76;33.14
66486;BME280;53303;47.476;8.084;2023-03-03T05:50:59;95337.16;;;18.80;33.19
66486;BME280;53303;47.476;8.084;2023-03-03T05:53:28;95334.91;;;18.73;33.12
66486;BME280;53303;47.476;8.084;2023-03-03T05:55:56;95342.44;;;18.78;33.20
66486;BME280;53303;47.476;8.084;2023-03-03T05:58:25;95345.97;;;18.78;33.20
66486;BME280;53303;47.476;8.084;2023-03-03T06:00:50;95345.22;;;18.78;33.17
66486;BME280;53303;47.476;8.084;2023-03-03T06:03:16;95346.19;;;18.75;33.08
66486;BME280;53303;47.476;8.084;2023-03-03T06:05:42;95350.75;;;18.78;33.16
66486;BME280;53303;47.476;8.084;2023-03-03T06:08:07;95318.81;;;18.54;33.25
66486;BME280;53303;47.476;8.084;2023-03-03T06:10:33;95356.03;;;18.76;33.25
66486;BME280;53303;47.476;8.084;2023-03-03T06:12:58;95351.72;;;18.75;33.17
66486;BME280;53303;47.476;8.084;2023-03-03T06:15:26;95350.47;;;18.70;33.32
66486;BME280;53303;47.476;8.084;2023-03-03T06:17:51;95357.25;;;18.75;33.30
66486;BME280;53303;47.476;8.084;2023-03-03T06:20:17;95348.72;;;18.67;33.08
66486;BME280;53303;47.476;8.084;2023-03-03T06:22:42;95362.03;;;18.74;33.28
66486;BME280;53303;47.476;8.084;2023-03-03T06:25:10;95364.56;;;18.72;33.19
66486;BME280;53303;47.476;8.084;2023-03-03T06:27:35;95360.25;;;18.65;33.28
66486;BME280;53303;47.476;8.084;2023-03-03T06:30:01;95365.06;;;18.71;33.07
66486;BME280;53303;47.476;8.084;2023-03-03T06:32:29;95366.28;;;18.70;33.23
66486;BME280;53303;47.476;8.084;2023-03-03T06:34:59;95369.59;;;18.74;33.28
66486;BME280;53303;47.476;8.084;2023-03-03T06:37:25;95376.34;;;18.73;33.05
66486;BME280;53303;47.476;8.084;2023-03-03T06:39:52;95375.59;;;18.72;33.19
66486;BME280;53303;47.476;8.084;2023-03-03T06:42:18;95387.41;;;18.73;33.28
66486;BME280;53303;47.476;8.084;2023-03-03T06:44:45;95377.63;;;18.72;33.18
66486;BME280;53303;47.476;8.084;2023-03-03T06:47:10;95385.91;;;18.72;33.06
66486;BME280;53303;47.476;8.084;2023-03-03T06:49:36;95372.84;;;18.67;33.31
66486;BME280;53303;47.476;8.084;2023-03-03T06:52:11;95390.41;;;18.69;33.10
66486;BME280;53303;47.476;8.084;2023-03-03T06:54:40;95402.50;;;18.72;32.96
66486;BME280;53303;47.476;8.084;2023-03-03T06:57:19;95400.97;;;18.71;33.17
66486;BME280;53303;47.476;8.084;2023-03-03T06:59:51;95408.03;;;18.72;33.04
66486;BME280;53303;47.476;8.084;2023-03-03T07:02:18;95400.47;;;18.67;32.76
66486;BME280;53303;47.476;8.084;2023-03-03T07:04:44;95411.53;;;18.72;33.04
66486;BME280;53303;47.476;8.084;2023-03-03T07:07:19;95406.00;;;18.67;33.04
66486;BME280;53303;47.476;8.084;2023-03-03T07:09:48;95405.50;;;18.68;33.06
66486;BME280;53303;47.476;8.084;2023-03-03T07:12:18;95417.56;;;18.71;33.19
66486;BME280;53303;47.476;8.084;2023-03-03T07:14:47;95411.25;;;18.59;33.16
66486;BME280;53303;47.476;8.084;2023-03-03T07:17:20;95416.28;;;18.66;33.02
66486;BME280;53303;47.476;8.084;2023-03-03T07:19:46;95412.53;;;18.69;33.07
66486;BME280;53303;47.476;8.084;2023-03-03T07:22:24;95414.53;;;18.69;33.06
66486;BME280;53303;47.476;8.084;2023-03-03T07:24:53;95416.81;;;18.70;33.06
66486;BME280;53303;47.476;8.084;2023-03-03T07:27:27;95418.81;;;18.70;32.96
66486;BME280;53303;47.476;8.084;2023-03-03T07:30:16;95418.28;;;18.60;32.83
66486;BME280;53303;47.476;8.084;2023-03-03T07:32:45;95433.41;;;18.70;32.88
66486;BME280;53303;47.476;8.084;2023-03-03T07:35:28;95429.59;;;18.68;33.19
66486;BME280;53303;47.476;8.084;2023-03-03T07:37:55;95424.56;;;18.66;33.05
66486;BME280;53303;47.476;8.084;2023-03-03T07:42:58;95427.09;;;18.70;33.29
66486;BME280;53303;47.476;8.084;2023-03-03T07:45:28;95423.59;;;18.69;32.93
66486;BME280;53303;47.476;8.084;2023-03-03T07:50:38;95434.16;;;18.71;32.87
66486;BME280;53303;47.476;8.084;2023-03-03T07:53:18;95434.91;;;18.71;33.06
66486;BME280;53303;47.476;8.084;2023-03-03T07:55:46;95425.34;;;18.61;33.30
66486;BME280;53303;47.476;8.084;2023-03-03T08:03:24;95420.53;;;18.56;33.11
66486;BME280;53303;47.476;8.084;2023-03-03T08:05:50;95444.47;;;18.70;33.13
66486;BME280;53303;47.476;8.084;2023-03-03T08:08:29;95452.75;;;18.70;33.04
66486;BME280;53303;47.476;8.084;2023-03-03T08:10:57;95459.78;;;18.71;32.87
66486;BME280;53303;47.476;8.084;2023-03-03T08:13:43;95454.47;;;18.68;33.05
66486;BME280;53303;47.476;8.084;2023-03-03T08:18:37;95450.25;;;18.72;32.97
66486;BME280;53303;47.476;8.084;2023-03-03T08:21:13;95443.97;;;18.72;32.81
66486;BME280;53303;47.476;8.084;2023-03-03T08:23:39;95433.38;;;18.64;32.94
66486;BME280;53303;47.476;8.084;2023-03-03T08:26:04;95441.19;;;18.72;33.00
66486;BME280;53303;47.476;8.084;2023-03-03T08:28:30;95442.44;;;18.71;32.99
66486;BME280;53303;47.476;8.084;2023-03-03T08:30:56;95443.19;;;18.71;32.93
66486;BME280;53303;47.476;8.084;2023-03-03T08:33:21;95446.97;;;18.74;32.96
66486;BME280;53303;47.476;8.084;2023-03-03T08:35:47;95440.91;;;18.70;33.03
66486;BME280;53303;47.476;8.084;2023-03-03T08:38:14;95444.22;;;18.74;32.79
66486;BME280;53303;47.476;8.084;2023-03-03T08:40:43;95453.25;;;18.74;32.75
66486;BME280;53303;47.476;8.084;2023-03-03T08:43:09;95451.25;;;18.75;32.75
66486;BME280;53303;47.476;8.084;2023-03-03T08:45:35;95445.22;;;18.71;32.88
66486;BME280;53303;47.476;8.084;2023-03-03T08:48:03;95444.94;;;18.69;32.93
66486;BME280;53303;47.476;8.084;2023-03-03T08:50:29;95451.25;;;18.75;32.98
66486;BME280;53303;47.476;8.084;2023-03-03T08:52:55;95451.00;;;18.73;32.85
66486;BME280;53303;47.476;8.084;2023-03-03T08:55:20;95454.78;;;18.75;32.84
66486;BME280;53303;47.476;8.084;2023-03-03T08:57:46;95444.22;;;18.68;32.71
66486;BME280;53303;47.476;8.084;2023-03-03T09:00:16;95450.50;;;18.74;32.64
66486;BME280;53303;47.476;8.084;2023-03-03T09:02:42;95448.47;;;18.75;33.01
66486;BME280;53303;47.476;8.084;2023-03-03T09:05:08;95454.00;;;18.69;32.81
66486;BME280;53303;47.476;8.084;2023-03-03T09:07:33;95464.56;;;18.76;32.70
66486;BME280;53303;47.476;8.084;2023-03-03T09:09:59;95468.06;;;18.77;32.83
66486;BME280;53303;47.476;8.084;2023-03-03T09:14:57;95471.63;;;18.77;32.90
66486;BME280;53303;47.476;8.084;2023-03-03T09:17:29;95471.38;;;18.75;32.84
66486;BME280;53303;47.476;8.084;2023-03-03T09:20:22;95465.31;;;18.71;32.83
66486;BME280;53303;47.476;8.084;2023-03-03T09:22:49;95472.13;;;18.76;32.97
66486;BME280;53303;47.476;8.084;2023-03-03T09:27:53;95476.91;;;18.75;32.67
66486;BME280;53303;47.476;8.084;2023-03-03T09:32:50;95463.03;;;18.70;32.73
66486;BME280;53303;47.476;8.084;2023-03-03T09:35:35;95481.66;;;18.75;32.62
66486;BME280;53303;47.476;8.084;2023-03-03T09:54:18;95474.38;;;18.77;32.78
66486;BME280;53303;47.476;8.084;2023-03-03T09:59:42;95471.88;;;18.79;32.76
66486;BME280;53303;47.476;8.084;2023-03-03T10:16:08;95469.38;;;18.81;32.76
66486;BME280;53303;47.476;8.084;2023-03-03T10:23:55;95470.59;;;18.80;32.75
66486;BME280;53303;47.476;8.084;2023-03-03T10:26:41;95469.38;;;18.81;32.81
66486;BME280;53303;47.476;8.084;2023-03-03T10:29:20;95473.94;;;18.85;32.84
66486;BME280;53303;47.476;8.084;2023-03-03T10:37:17;95471.16;;;18.85;32.66
66486;BME280;53303;47.476;8.084;2023-03-03T10:53:07;95477.94;;;18.83;32.79
66486;BME280;53303;47.476;8.084;2023-03-03T10:58:36;95476.97;;;18.92;32.62
66486;BME280;53303;47.476;8.084;2023-03-03T11:04:03;95481.50;;;18.95;32.56
66486;BME280;53303;47.476;8.084;2023-03-03T11:12:31;95466.88;;;18.89;32.79
66486;BME280;53303;47.476;8.084;2023-03-03T11:20:38;95437.41;;;18.75;32.53
66486;BME280;53303;47.476;8.084;2023-03-03T11:25:52;95455.09;;;19.00;32.48
66486;BME280;53303;47.476;8.084;2023-03-03T11:31:16;95455.38;;;19.02;32.59
66486;BME280;53303;47.476;8.084;2023-03-03T11:34:33;95446.81;;;19.00;32.66
66486;BME280;53303;47.476;8.084;2023-03-03T11:36:57;95448.34;;;19.01;32.79
66486;BME280;53303;47.476;8.084;2023-03-03T11:39:28;95442.81;;;19.01;32.62
66486;BME280;53303;47.476;8.084;2023-03-03T11:44:37;95437.53;;;19.03;32.64
66486;BME280;53303;47.476;8.084;2023-03-03T11:47:16;95439.03;;;19.10;32.59
66486;BME280;53303;47.476;8.084;2023-03-03T11:55:25;95428.22;;;19.12;32.58
66486;BME280;53303;47.476;8.084;2023-03-03T12:03:41;95430.50;;;19.19;32.42
66486;BME280;53303;47.476;8.084;2023-03-03T12:06:29;95418.94;;;19.15;32.49
66486;BME280;53303;47.476;8.084;2023-03-03T12:09:25;95419.19;;;19.17;32.50
66486;BME280;53303;47.476;8.084;2023-03-03T12:12:13;95416.44;;;19.17;32.55
66486;BME280;53303;47.476;8.084;2023-03-03T12:15:24;95407.63;;;19.18;32.40
66486;BME280;53303;47.476;8.084;2023-03-03T12:18:08;95418.69;;;19.24;32.45
66486;BME280;53303;47.476;8.084;2023-03-03T12:26:34;95412.66;;;19.26;32.31
66486;BME280;53303;47.476;8.084;2023-03-03T12:29:04;95417.19;;;19.29;32.61
66486;BME280;53303;47.476;8.084;2023-03-03T12:34:25;95410.38;;;19.30;32.48
66486;BME280;53303;47.476;8.084;2023-03-03T12:39:54;95403.59;;;19.36;32.42
66486;BME280;53303;47.476;8.084;2023-03-03T12:42:49;95406.13;;;19.34;32.52
66486;BME280;53303;47.476;8.084;2023-03-03T12:50:54;95395.81;;;19.40;32.36
66486;BME280;53303;47.476;8.084;2023-03-03T12:56:25;95388.78;;;19.45;32.39
66486;BME280;53303;47.476;8.084;2023-03-03T12:59:03;95390.25;;;19.46;32.60
66486;BME280;53303;47.476;8.084;2023-03-03T13:04:40;95384.47;;;19.50;32.28
66486;BME280;53303;47.476;8.084;2023-03-03T13:13:07;95368.38;;;19.48;32.37
66486;BME280;53303;47.476;8.084;2023-03-03T13:15:38;95381.44;;;19.53;32.45
66486;BME280;53303;47.476;8.084;2023-03-03T13:20:42;95378.69;;;19.53;32.39
66486;BME280;53303;47.476;8.084;2023-03-03T13:23:37;95386.47;;;19.55;32.53
66486;BME280;53303;47.476;8.084;2023-03-03T13:29:22;95371.16;;;19.54;32.39
66486;BME280;53303;47.476;8.084;2023-03-03T13:32:12;95377.69;;;19.56;32.45
66486;BME280;53303;47.476;8.084;2023-03-03T13:37:41;95358.31;;;19.51;32.30
66486;BME280;53303;47.476;8.084;2023-03-03T13:40:16;95376.91;;;19.62;32.38
66486;BME280;53303;47.476;8.084;2023-03-03T13:43:07;95373.41;;;19.61;32.43
66486;BME280;53303;47.476;8.084;2023-03-03T13:50:52;95375.91;;;19.65;32.57
66486;BME280;53303;47.476;8.084;2023-03-03T14:06:35;95362.31;;;19.72;32.57
66486;BME280;53303;47.476;8.084;2023-03-03T14:09:11;95362.81;;;19.76;32.56
66486;BME280;53303;47.476;8.084;2023-03-03T14:12:00;95360.56;;;19.75;32.45
66486;BME280;53303;47.476;8.084;2023-03-03T14:17:48;95358.06;;;19.77;32.48
66486;BME280;53303;47.476;8.084;2023-03-03T14:20:27;95355.28;;;19.83;32.53
66486;BME280;53303;47.476;8.084;2023-03-03T14:23:18;95353.00;;;19.81;32.48
66486;BME280;53303;47.476;8.084;2023-03-03T14:28:38;95355.00;;;19.86;32.46
66486;BME280;53303;47.476;8.084;2023-03-03T14:31:22;95359.78;;;19.86;32.41
66486;BME280;53303;47.476;8.084;2023-03-03T14:36:44;95350.97;;;19.82;32.85
66486;BME280;53303;47.476;8.084;2023-03-03T14:39:36;95352.00;;;19.78;32.58
66486;BME280;53303;47.476;8.084;2023-03-03T14:42:12;95355.78;;;19.75;32.75
66486;BME280;53303;47.476;8.084;2023-03-03T14:47:11;95356.03;;;19.77;32.75
66486;BME280;53303;47.476;8.084;2023-03-03T14:49:42;95339.66;;;19.68;32.71
66486;BME280;53303;47.476;8.084;2023-03-03T14:54:41;95354.00;;;19.72;32.71
66486;BME280;53303;47.476;8.084;2023-03-03T15:02:42;95356.28;;;19.68;32.73
66486;BME280;53303;47.476;8.084;2023-03-03T15:07:37;95352.50;;;19.60;32.62
66486;BME280;53303;47.476;8.084;2023-03-03T15:10:05;95352.75;;;19.62;32.74
66486;BME280;53303;47.476;8.084;2023-03-03T15:12:37;95343.22;;;19.57;32.88
66486;BME280;53303;47.476;8.084;2023-03-03T15:17:57;95363.09;;;19.62;32.89
66486;BME280;53303;47.476;8.084;2023-03-03T15:20:52;95361.06;;;19.56;32.94
66486;BME280;53303;47.476;8.084;2023-03-03T15:25:58;95355.78;;;19.58;32.94
66486;BME280;53303;47.476;8.084;2023-03-03T15:29:10;95359.56;;;19.44;33.20
66486;BME280;53303;47.476;8.084;2023-03-03T15:31:41;95363.38;;;19.47;33.09
66486;BME280;53303;47.476;8.084;2023-03-03T15:40:11;95372.41;;;19.47;33.05
66486;BME280;53303;47.476;8.084;2023-03-03T15:45:39;95370.41;;;19.31;33.38
66486;BME280;53303;47.476;8.084;2023-03-03T15:54:32;95377.44;;;19.43;33.21
66486;BME280;53303;47.476;8.084;2023-03-03T16:04:54;95370.91;;;19.35;33.35
66486;BME280;53303;47.476;8.084;2023-03-03T16:10:21;95374.41;;;19.35;33.31
66486;BME280;53303;47.476;8.084;2023-03-03T16:21:14;95391.03;;;19.35;33.32
66486;BME280;53303;47.476;8.084;2023-03-03T16:23:48;95391.53;;;19.34;33.35
66486;BME280;53303;47.476;8.084;2023-03-03T16:31:48;95385.25;;;19.28;33.38
66486;BME280;53303;47.476;8.084;2023-03-03T16:37:41;95402.84;;;19.30;33.45
66486;BME280;53303;47.476;8.084;2023-03-03T16:39:55;95404.84;;;19.30;33.43
66486;BME280;53303;47.476;8.084;2023-03-03T16:47:52;95418.19;;;19.26;33.40
66486;BME280;53303;47.476;8.084;2023-03-03T16:56:09;95423.97;;;19.22;33.41
66486;BME280;53303;47.476;8.084;2023-03-03T17:10:25;95441.31;;;19.17;33.50
66486;BME280;53303;47.476;8.084;2023-03-03T17:13:30;95435.53;;;19.09;33.60
66486;BME280;53303;47.476;8.084;2023-03-03T17:19:17;95460.69;;;19.11;33.65
66486;BME280;53303;47.476;8.084;2023-03-03T17:22:11;95469.72;;;19.12;33.57
66486;BME280;53303;47.476;8.084;2023-03-03T17:25:01;95466.22;;;19.11;33.68
66486;BME280;53303;47.476;8.084;2023-03-03T17:36:24;95487.06;;;19.12;33.73
66486;BME280;53303;47.476;8.084;2023-03-03T18:01:36;95521.75;;;19.08;33.78
66486;BME280;53303;47.476;8.084;2023-03-03T18:18:20;95540.88;;;19.06;35.42
66486;BME280;53303;47.476;8.084;2023-03-03T18:20:58;95543.63;;;19.06;34.86
66486;BME280;53303;47.476;8.084;2023-03-03T18:25:56;95543.41;;;19.09;34.74
66486;BME280;53303;47.476;8.084;2023-03-03T18:28:42;95543.63;;;19.06;34.69
66486;BME280;53303;47.476;8.084;2023-03-03T18:31:26;95542.34;;;19.01;35.03
66486;BME280;53303;47.476;8.084;2023-03-03T18:34:01;95547.91;;;19.07;34.65
66486;BME280;53303;47.476;8.084;2023-03-03T18:38:58;95547.91;;;19.07;34.76
66486;BME280;53303;47.476;8.084;2023-03-03T18:41:29;95548.16;;;19.09;34.96
66486;BME280;53303;47.476;8.084;2023-03-03T18:43:58;95537.06;;;19.03;35.02
66486;BME280;53303;47.476;8.084;2023-03-03T18:48:53;95544.13;;;19.04;34.81
66486;BME280;53303;47.476;8.084;2023-03-03T18:56:46;95556.44;;;19.09;34.89
66486;BME280;53303;47.476;8.084;2023-03-03T19:04:39;95558.97;;;19.07;35.07
66486;BME280;53303;47.476;8.084;2023-03-03T19:07:27;95563.00;;;19.06;35.03
66486;BME280;53303;47.476;8.084;2023-03-03T19:10:25;95555.69;;;19.02;34.90